sensor_id;sensor_type;location;lat;lon;timestamp;P1;durP1;ratioP1;P2;durP2;ratioP2
2107;SDS011;1060;52.492;13.388;2023-06-14T00:00:10;4.83;;;3.10;;
2107;SDS011;1060;52.492;13.388;2023-06-14T00:02:43;6.50;;;4.00;;
2107;SDS011;1060;52.492;13.388;2023-06-14T00:05:09;4.67;;;4.27;;
2107;SDS011;1060;52.492;13.388;2023-06-14T00:07:40;4.70;;;4.10;;
2107;SDS011;1060;52.492;13.388;2023-06-14T00:10:24;4.67;;;3.93;;
2107;SDS011;1060;52.492;13.388;2023-06-14T00:12:58;4.77;;;4.10;;
2107;SDS011;1060;52.492;13.388;2023-06-14T00:15:25;4.40;;;3.30;;
2107;SDS011;1060;52.492;13.388;2023-06-14T00:17:51;4.57;;;3.00;;
2107;SDS011;1060;52.492;13.388;2023-06-14T00:20:17;4.47;;;4.07;;
2107;SDS011;1060;52.492;13.388;2023-06-14T00:22:44;4.33;;;4.03;;
2107;SDS011;1060;52.492;13.388;2023-06-14T00:25:10;4.50;;;4.20;;
2107;SDS011;1060;52.492;13.388;2023-06-14T00:27:36;4.40;;;4.00;;
2107;SDS011;1060;52.492;13.388;2023-06-14T00:30:05;3.30;;;3.10;;
2107;SDS011;1060;52.492;13.388;2023-06-14T00:32:32;5.80;;;4.40;;
2107;SDS011;1060;52.492;13.388;2023-06-14T00:34:58;5.40;;;4.33;;
2107;SDS011;1060;52.492;13.388;2023-06-14T00:37:26;5.67;;;5.17;;
2107;SDS011;1060;52.492;13.388;2023-06-14T00:39:54;4.90;;;4.17;;
2107;SDS011;1060;52.492;13.388;2023-06-14T00:42:27;4.83;;;4.23;;
2107;SDS011;1060;52.492;13.388;2023-06-14T00:45:00;4.47;;;4.07;;
2107;SDS011;1060;52.492;13.388;2023-06-14T00:47:29;4.47;;;4.07;;
2107;SDS011;1060;52.492;13.388;2023-06-14T00:49:59;4.97;;;4.50;;
2107;SDS011;1060;52.492;13.388;2023-06-14T00:52:29;4.03;;;3.83;;
2107;SDS011;1060;52.492;13.388;2023-06-14T00:54:57;5.97;;;4.67;;
2107;SDS011;1060;52.492;13.388;2023-06-14T00:57:24;4.07;;;3.63;;
2107;SDS011;1060;52.492;13.388;2023-06-14T00:59:53;4.63;;;4.17;;
2107;SDS011;1060;52.492;13.388;2023-06-14T01:02:20;5.30;;;4.80;;
2107;SDS011;1060;52.492;13.388;2023-06-14T01:04:50;4.77;;;4.37;;
2107;SDS011;1060;52.492;13.388;2023-06-14T01:07:40;5.20;;;4.80;;
2107;SDS011;1060;52.492;13.388;2023-06-14T01:15:21;5.40;;;4.90;;
2107;SDS011;1060;52.492;13.388;2023-06-14T01:17:54;5.83;;;4.77;;
2107;SDS011;1060;52.492;13.388;2023-06-14T01:20:29;5.50;;;5.00;;
2107;SDS011;1060;52.492;13.388;2023-06-14T01:22:59;5.93;;;5.43;;
2107;SDS011;1060;52.492;13.388;2023-06-14T01:25:46;7.80;;;5.10;;
2107;SDS011;1060;52.492;13.388;2023-06-14T01:28:13;6.40;;;5.80;;
2107;SDS011;1060;52.492;13.388;2023-06-14T01:30:42;6.57;;;6.00;;
2107;SDS011;1060;52.492;13.388;2023-06-14T01:33:22;5.40;;;5.00;;
2107;SDS011;1060;52.492;13.388;2023-06-14T01:35:55;5.73;;;5.30;;
2107;SDS011;1060;52.492;13.388;2023-06-14T01:38:23;5.83;;;5.27;;
2107;SDS011;1060;52.492;13.388;2023-06-14T01:40:50;5.60;;;5.10;;
2107;SDS011;1060;52.492;13.388;2023-06-14T01:43:18;5.70;;;5.30;;
2107;SDS011;1060;52.492;13.388;2023-06-14T01:45:45;6.20;;;5.70;;
2107;SDS011;1060;52.492;13.388;2023-06-14T01:48:14;6.30;;;5.80;;
2107;SDS011;1060;52.492;13.388;2023-06-14T01:50:44;5.33;;;4.93;;
2107;SDS011;1060;52.492;13.388;2023-06-14T01:53:10;6.33;;;5.83;;
2107;SDS011;1060;52.492;13.388;2023-06-14T01:55:37;6.20;;;5.60;;
2107;SDS011;1060;52.492;13.388;2023-06-14T01:58:05;5.53;;;5.13;;
2107;SDS011;1060;52.492;13.388;2023-06-14T02:00:34;6.47;;;5.90;;
2107;SDS011;1060;52.492;13.388;2023-06-14T02:03:01;7.87;;;7.20;;
2107;SDS011;1060;52.492;13.388;2023-06-14T02:05:30;6.03;;;5.63;;
2107;SDS011;1060;52.492;13.388;2023-06-14T02:07:56;6.67;;;6.17;;
2107;SDS011;1060;52.492;13.388;2023-06-14T02:10:22;6.63;;;6.20;;
2107;SDS011;1060;52.492;13.388;2023-06-14T02:12:49;8.30;;;7.60;;
2107;SDS011;1060;52.492;13.388;2023-06-14T02:15:15;7.00;;;6.40;;
2107;SDS011;1060;52.492;13.388;2023-06-14T02:17:50;5.97;;;5.47;;
2107;SDS011;1060;52.492;13.388;2023-06-14T02:20:17;6.47;;;5.90;;
2107;SDS011;1060;52.492;13.388;2023-06-14T02:22:46;6.97;;;6.37;;
2107;SDS011;1060;52.492;13.388;2023-06-14T02:25:12;6.70;;;6.10;;
2107;SDS011;1060;52.492;13.388;2023-06-14T02:27:39;7.30;;;6.70;;
2107;SDS011;1060;52.492;13.388;2023-06-14T02:30:06;6.90;;;6.40;;
2107;SDS011;1060;52.492;13.388;2023-06-14T02:32:32;6.83;;;6.13;;
2107;SDS011;1060;52.492;13.388;2023-06-14T02:35:05;7.70;;;7.03;;
2107;SDS011;1060;52.492;13.388;2023-06-14T02:37:46;7.90;;;6.07;;
2107;SDS011;1060;52.492;13.388;2023-06-14T02:40:20;6.93;;;6.23;;
2107;SDS011;1060;52.492;13.388;2023-06-14T02:43:16;7.93;;;7.20;;
2107;SDS011;1060;52.492;13.388;2023-06-14T02:46:07;7.10;;;6.50;;
2107;SDS011;1060;52.492;13.388;2023-06-14T02:49:10;10.27;;;6.57;;
2107;SDS011;1060;52.492;13.388;2023-06-14T02:54:36;7.73;;;7.00;;
2107;SDS011;1060;52.492;13.388;2023-06-14T03:00:09;8.10;;;7.50;;
2107;SDS011;1060;52.492;13.388;2023-06-14T03:02:39;7.57;;;6.97;;
2107;SDS011;1060;52.492;13.388;2023-06-14T03:05:13;8.03;;;6.97;;
2107;SDS011;1060;52.492;13.388;2023-06-14T03:11:02;8.43;;;7.70;;
2107;SDS011;1060;52.492;13.388;2023-06-14T03:13:36;8.13;;;7.33;;
2107;SDS011;1060;52.492;13.388;2023-06-14T03:16:14;8.83;;;8.03;;
2107;SDS011;1060;52.492;13.388;2023-06-14T03:22:04;9.43;;;8.40;;
2107;SDS011;1060;52.492;13.388;2023-06-14T03:24:38;7.80;;;7.20;;
2107;SDS011;1060;52.492;13.388;2023-06-14T03:27:13;8.10;;;7.40;;
2107;SDS011;1060;52.492;13.388;2023-06-14T03:33:07;8.00;;;7.30;;
2107;SDS011;1060;52.492;13.388;2023-06-14T03:35:40;8.33;;;7.53;;
2107;SDS011;1060;52.492;13.388;2023-06-14T03:38:25;8.43;;;7.57;;
2107;SDS011;1060;52.492;13.388;2023-06-14T03:41:03;8.90;;;8.20;;
2107;SDS011;1060;52.492;13.388;2023-06-14T03:43:42;7.10;;;6.50;;
2107;SDS011;1060;52.492;13.388;2023-06-14T03:46:37;8.57;;;7.77;;
2107;SDS011;1060;52.492;13.388;2023-06-14T03:49:32;9.20;;;8.50;;
2107;SDS011;1060;52.492;13.388;2023-06-14T03:52:32;9.10;;;8.30;;
2107;SDS011;1060;52.492;13.388;2023-06-14T03:55:05;9.50;;;7.33;;
2107;SDS011;1060;52.492;13.388;2023-06-14T03:57:45;9.00;;;8.30;;
2107;SDS011;1060;52.492;13.388;2023-06-14T04:00:19;8.90;;;8.10;;
2107;SDS011;1060;52.492;13.388;2023-06-14T04:03:17;7.90;;;7.20;;
2107;SDS011;1060;52.492;13.388;2023-06-14T04:05:59;10.83;;;9.50;;
2107;SDS011;1060;52.492;13.388;2023-06-14T04:08:36;8.80;;;8.10;;
2107;SDS011;1060;52.492;13.388;2023-06-14T04:38:13;6.80;;;6.30;;
2107;SDS011;1060;52.492;13.388;2023-06-14T04:40:41;7.00;;;6.40;;
2107;SDS011;1060;52.492;13.388;2023-06-14T04:43:18;6.97;;;6.23;;
2107;SDS011;1060;52.492;13.388;2023-06-14T04:45:50;8.27;;;7.67;;
2107;SDS011;1060;52.492;13.388;2023-06-14T04:48:21;7.03;;;6.43;;
2107;SDS011;1060;52.492;13.388;2023-06-14T04:56:21;7.80;;;7.27;;
2107;SDS011;1060;52.492;13.388;2023-06-14T06:00:45;9.20;;;8.30;;
2107;SDS011;1060;52.492;13.388;2023-06-14T06:03:16;8.17;;;7.53;;
2107;SDS011;1060;52.492;13.388;2023-06-14T06:05:48;10.10;;;9.10;;
2107;SDS011;1060;52.492;13.388;2023-06-14T06:08:17;9.80;;;7.57;;
2107;SDS011;1060;52.492;13.388;2023-06-14T06:10:43;8.20;;;7.50;;
2107;SDS011;1060;52.492;13.388;2023-06-14T06:13:10;8.30;;;7.60;;
2107;SDS011;1060;52.492;13.388;2023-06-14T07:14:00;8.63;;;7.30;;
2107;SDS011;1060;52.492;13.388;2023-06-14T07:48:18;8.10;;;7.40;;
2107;SDS011;1060;52.492;13.388;2023-06-14T07:50:57;7.27;;;6.60;;
2107;SDS011;1060;52.492;13.388;2023-06-14T07:53:53;5.47;;;5.07;;
2107;SDS011;1060;52.492;13.388;2023-06-14T07:56:26;7.37;;;6.67;;
2107;SDS011;1060;52.492;13.388;2023-06-14T07:59:03;10.17;;;6.90;;
2107;SDS011;1060;52.492;13.388;2023-06-14T08:01:58;7.37;;;5.97;;
2107;SDS011;1060;52.492;13.388;2023-06-14T08:07:32;7.67;;;6.07;;
2107;SDS011;1060;52.492;13.388;2023-06-14T08:13:19;5.90;;;5.27;;
2107;SDS011;1060;52.492;13.388;2023-06-14T08:16:09;5.70;;;5.20;;
2107;SDS011;1060;52.492;13.388;2023-06-14T08:28:22;8.87;;;4.93;;
2107;SDS011;1060;52.492;13.388;2023-06-14T08:33:53;6.43;;;5.83;;
2107;SDS011;1060;52.492;13.388;2023-06-14T08:41:02;7.20;;;4.83;;
2107;SDS011;1060;52.492;13.388;2023-06-14T09:11:55;6.03;;;4.40;;
2107;SDS011;1060;52.492;13.388;2023-06-14T09:32:03;4.50;;;4.00;;
2107;SDS011;1060;52.492;13.388;2023-06-14T09:37:44;7.83;;;4.37;;
2107;SDS011;1060;52.492;13.388;2023-06-14T09:40:37;6.23;;;5.33;;
2107;SDS011;1060;52.492;13.388;2023-06-14T09:46:33;15.93;;;5.33;;
2107;SDS011;1060;52.492;13.388;2023-06-14T09:49:20;8.90;;;6.30;;
2107;SDS011;1060;52.492;13.388;2023-06-14T09:52:14;5.70;;;4.93;;
2107;SDS011;1060;52.492;13.388;2023-06-14T09:55:43;5.73;;;5.17;;
2107;SDS011;1060;52.492;13.388;2023-06-14T09:58:23;7.67;;;5.13;;
2107;SDS011;1060;52.492;13.388;2023-06-14T10:01:47;4.43;;;4.00;;
2107;SDS011;1060;52.492;13.388;2023-06-14T10:08:50;8.33;;;4.63;;
2107;SDS011;1060;52.492;13.388;2023-06-14T11:56:13;5.10;;;4.10;;
2107;SDS011;1060;52.492;13.388;2023-06-14T13:02:44;5.90;;;4.10;;
2107;SDS011;1060;52.492;13.388;2023-06-14T13:05:13;6.30;;;4.07;;
2107;SDS011;1060;52.492;13.388;2023-06-14T13:08:01;5.77;;;3.80;;
2107;SDS011;1060;52.492;13.388;2023-06-14T13:10:57;6.27;;;4.30;;
2107;SDS011;1060;52.492;13.388;2023-06-14T13:27:47;5.60;;;4.80;;
2107;SDS011;1060;52.492;13.388;2023-06-14T13:30:33;4.73;;;4.33;;
2107;SDS011;1060;52.492;13.388;2023-06-14T13:33:02;8.40;;;5.00;;
2107;SDS011;1060;52.492;13.388;2023-06-14T13:35:32;4.13;;;3.60;;
2107;SDS011;1060;52.492;13.388;2023-06-14T13:39:05;5.93;;;3.30;;
2107;SDS011;1060;52.492;13.388;2023-06-14T13:41:42;7.27;;;4.40;;
2107;SDS011;1060;52.492;13.388;2023-06-14T13:48:19;7.10;;;3.90;;
2107;SDS011;1060;52.492;13.388;2023-06-14T13:54:31;8.00;;;3.93;;
2107;SDS011;1060;52.492;13.388;2023-06-14T13:56:58;4.63;;;4.20;;
2107;SDS011;1060;52.492;13.388;2023-06-14T13:59:37;4.60;;;3.93;;
2107;SDS011;1060;52.492;13.388;2023-06-14T14:02:31;4.23;;;3.70;;
2107;SDS011;1060;52.492;13.388;2023-06-14T14:05:08;3.93;;;3.37;;
2107;SDS011;1060;52.492;13.388;2023-06-14T14:45:03;8.20;;;4.10;;
2107;SDS011;1060;52.492;13.388;2023-06-14T14:47:47;4.70;;;4.30;;
2107;SDS011;1060;52.492;13.388;2023-06-14T14:54:13;7.10;;;4.33;;
2107;SDS011;1060;52.492;13.388;2023-06-14T14:56:40;7.27;;;4.27;;
2107;SDS011;1060;52.492;13.388;2023-06-14T14:59:13;4.80;;;4.20;;
2107;SDS011;1060;52.492;13.388;2023-06-14T15:01:45;6.23;;;3.60;;
2107;SDS011;1060;52.492;13.388;2023-06-14T15:04:44;4.77;;;4.03;;
2107;SDS011;1060;52.492;13.388;2023-06-14T15:07:22;6.10;;;5.50;;
2107;SDS011;1060;52.492;13.388;2023-06-14T15:12:33;5.07;;;4.07;;
2107;SDS011;1060;52.492;13.388;2023-06-14T15:15:36;7.50;;;4.73;;
2107;SDS011;1060;52.492;13.388;2023-06-14T15:18:12;4.40;;;4.00;;
2107;SDS011;1060;52.492;13.388;2023-06-14T15:20:45;6.03;;;3.70;;
2107;SDS011;1060;52.492;13.388;2023-06-14T15:23:14;4.53;;;4.13;;
2107;SDS011;1060;52.492;13.388;2023-06-14T17:30:10;9.37;;;6.00;;
2107;SDS011;1060;52.492;13.388;2023-06-14T17:42:16;6.60;;;5.70;;
2107;SDS011;1060;52.492;13.388;2023-06-14T17:45:08;6.13;;;5.57;;
2107;SDS011;1060;52.492;13.388;2023-06-14T17:58:33;11.90;;;9.53;;
2107;SDS011;1060;52.492;13.388;2023-06-14T18:52:24;7.73;;;4.53;;
2107;SDS011;1060;52.492;13.388;2023-06-14T22:57:29;4.50;;;3.90;;
2107;SDS011;1060;52.492;13.388;2023-06-14T23:37:47;4.33;;;3.93;;
2107;SDS011;1060;52.492;13.388;2023-06-14T23:53:26;6.43;;;4.80;;
